Time;durP1;ratioP1;P1;durP2;ratioP2;P2;SDS_P1;SDS_P2;PMS_P1;PMS_P2;Temp;Humidity;BMP_temperature;BMP_pressure;BME280_temperature;BME280_humidity;BME280_pressure;Samples;Min_cycle;Max_cycle;Signal;HPM_P1;HPM_P2
2023/07/19 00:00:54;;;;;;;7.32;5.40;;;;;;;31.21;48.33;99778.84;4880770;29;20033;-73
2023/07/19 00:03:21;;;;;;;8.65;5.13;;;;;;;31.21;48.39;99786.06;4897197;29;20040;-72
2023/07/19 00:05:46;;;;;;;8.52;5.57;;;;;;;31.19;48.39;99772.72;4897518;29;20399;-73
2023/07/19 00:08:12;;;;;;;9.00;6.03;;;;;;;31.18;48.55;99787.22;4896912;29;20501;-73
2023/07/19 00:10:37;;;;;;;7.30;4.88;;;;;;;31.19;48.35;99758.44;4897347;29;20029;-73
2023/07/19 00:13:02;;;;;;;7.90;5.57;;;;;;;31.19;48.46;99763.81;4897269;29;20595;-73
2023/07/19 00:15:30;;;;;;;8.48;5.45;;;;;;;31.18;48.26;99744.09;4897206;29;20397;-73
2023/07/19 00:17:55;;;;;;;8.38;5.47;;;;;;;31.17;48.16;99719.97;4897440;29;20051;-73
2023/07/19 00:20:21;;;;;;;8.20;5.30;;;;;;;31.16;48.15;99702.13;4897155;29;20116;-73
2023/07/19 00:22:46;;;;;;;7.97;5.00;;;;;;;31.15;48.22;99662.69;4896811;29;20509;-73
2023/07/19 00:25:11;;;;;;;8.23;4.90;;;;;;;31.13;48.18;99652.06;4896997;29;20083;-73
2023/07/19 00:27:37;;;;;;;7.13;4.93;;;;;;;31.13;48.03;99645.84;4897266;29;20033;-74
2023/07/19 00:30:03;;;;;;;6.50;4.85;;;;;;;31.12;48.21;99630.69;4896972;29;20430;-73
2023/07/19 00:32:28;;;;;;;6.88;5.25;;;;;;;31.07;48.06;99606.88;4895745;29;20111;-73
2023/07/19 00:34:54;;;;;;;6.00;4.70;;;;;;;31.06;48.16;99589.91;4896402;29;20422;-73
2023/07/19 00:37:19;;;;;;;7.80;5.85;;;;;;;31.04;48.11;99596.44;4892430;29;20056;-73
2023/07/19 00:39:44;;;;;;;7.32;4.90;;;;;;;31.02;48.11;99610.06;4897008;29;20021;-74
2023/07/19 00:42:10;;;;;;;5.93;4.13;;;;;;;31.01;48.52;99603.00;4896841;29;20517;-73
2023/07/19 00:44:35;;;;;;;6.45;4.53;;;;;;;31.01;48.27;99608.38;4879857;29;20040;-73
2023/07/19 00:47:02;;;;;;;7.00;4.80;;;;;;;30.98;48.36;99602.47;4886529;29;20029;-73
2023/07/19 00:49:29;;;;;;;6.57;4.57;;;;;;;30.95;48.65;99576.69;4896525;29;20029;-73
2023/07/19 00:51:56;;;;;;;6.05;4.15;;;;;;;30.94;48.16;99575.00;4884414;29;20516;-73
2023/07/19 00:54:21;;;;;;;6.60;4.43;;;;;;;30.91;48.13;99577.97;4890468;29;20465;-72
2023/07/19 00:56:48;;;;;;;6.75;4.45;;;;;;;30.89;48.17;99582.69;4896770;29;20036;-73
2023/07/19 00:59:15;;;;;;;9.07;4.97;;;;;;;30.87;48.21;99606.22;4896979;29;20464;-73
2023/07/19 01:01:44;;;;;;;6.22;4.18;;;;;;;30.85;47.99;99619.00;4896867;29;20028;-72
2023/07/19 01:04:10;;;;;;;7.03;4.70;;;;;;;30.85;48.35;99613.63;4896621;29;20111;-73
2023/07/19 01:06:35;;;;;;;6.40;4.50;;;;;;;30.81;48.33;99619.31;4896588;29;20116;-72
2023/07/19 01:09:01;;;;;;;6.57;4.07;;;;;;;30.80;48.29;99620.31;4896494;29;20108;-72
2023/07/19 01:11:26;;;;;;;6.30;4.60;;;;;;;30.79;48.10;99621.31;4896690;29;20028;-73
2023/07/19 01:13:53;;;;;;;5.63;3.97;;;;;;;30.78;48.18;99614.25;4896588;29;20024;-73
2023/07/19 01:16:19;;;;;;;6.30;3.75;;;;;;;30.78;48.12;99608.00;4896702;29;20040;-73
2023/07/19 01:18:45;;;;;;;6.93;4.72;;;;;;;30.77;48.11;99607.19;4896737;29;20024;-72
2023/07/19 01:21:10;;;;;;;6.43;4.68;;;;;;;30.73;48.22;99621.94;4896377;29;20069;-72
2023/07/19 01:23:36;;;;;;;8.65;4.38;;;;;;;30.72;48.32;99622.09;4896058;29;20032;-72
2023/07/19 01:26:01;;;;;;;5.47;3.92;;;;;;;30.69;48.28;99609.78;4892190;29;20027;-72
2023/07/19 01:28:27;;;;;;;6.07;4.05;;;;;;;30.69;48.26;99607.09;4896591;29;20107;-72
2023/07/19 01:30:52;;;;;;;5.85;4.30;;;;;;;30.67;48.31;99614.44;4896386;29;20021;-72
2023/07/19 01:33:18;;;;;;;5.63;4.05;;;;;;;30.66;48.48;99608.19;4895560;29;20024;-73
2023/07/19 01:35:43;;;;;;;7.65;4.40;;;;;;;30.63;48.35;99595.06;4895816;29;20076;-72
2023/07/19 01:38:08;;;;;;;6.03;4.10;;;;;;;30.65;48.33;99594.91;4896193;29;20013;-73
2023/07/19 01:40:34;;;;;;;6.60;4.35;;;;;;;30.63;48.34;99594.22;4896065;29;20025;-73
2023/07/19 01:42:59;;;;;;;6.80;4.30;;;;;;;30.59;48.38;99588.28;4894201;29;20069;-72
2023/07/19 01:45:24;;;;;;;6.18;4.38;;;;;;;30.62;48.40;99597.91;4896184;29;20103;-73
2023/07/19 01:47:50;;;;;;;6.13;4.00;;;;;;;30.59;48.28;99603.63;4895824;29;20036;-72
2023/07/19 01:50:15;;;;;;;6.15;4.05;;;;;;;30.57;48.25;99594.81;4894784;29;20088;-72
2023/07/19 01:52:41;;;;;;;6.50;4.10;;;;;;;30.54;48.25;99583.38;4895864;29;20027;-72
2023/07/19 01:55:07;;;;;;;6.72;4.63;;;;;;;30.52;48.49;99600.69;4895975;29;20025;-73
2023/07/19 01:57:32;;;;;;;5.80;3.80;;;;;;;30.51;48.69;99613.28;4896150;29;20084;-72
2023/07/19 01:59:58;;;;;;;6.88;3.83;;;;;;;30.52;48.67;99619.53;4896212;29;20462;-73
2023/07/19 02:02:23;;;;;;;5.10;3.80;;;;;;;30.50;48.62;99616.97;4895708;29;20027;-72
2023/07/19 02:04:48;;;;;;;6.05;3.83;;;;;;;30.47;48.42;99620.00;4897597;29;20112;-72
2023/07/19 02:07:14;;;;;;;5.75;4.05;;;;;;;30.49;48.64;99615.28;4899422;29;20473;-72
2023/07/19 02:09:40;;;;;;;6.10;3.53;;;;;;;30.47;48.59;99611.91;4898989;29;20048;-72
2023/07/19 02:12:06;;;;;;;6.07;3.83;;;;;;;30.46;48.54;99614.75;4899213;29;20052;-73
2023/07/19 02:14:31;;;;;;;5.10;3.78;;;;;;;30.45;48.37;99608.50;4897868;29;20497;-73
2023/07/19 02:16:56;;;;;;;5.25;3.47;;;;;;;30.43;48.79;99615.91;4898908;29;20067;-72
2023/07/19 02:19:22;;;;;;;6.07;3.78;;;;;;;30.42;48.75;99609.66;4899061;29;20083;-73
2023/07/19 02:21:47;;;;;;;5.80;3.72;;;;;;;30.40;48.75;99611.66;4899193;29;20025;-72
2023/07/19 02:24:13;;;;;;;6.35;3.85;;;;;;;30.39;48.63;99619.88;4899005;29;20088;-72
2023/07/19 02:26:38;;;;;;;5.03;3.80;;;;;;;30.40;48.25;99632.34;4898961;29;20032;-72
2023/07/19 02:29:03;;;;;;;5.70;3.60;;;;;;;30.40;48.43;99629.66;4898905;29;20485;-72
2023/07/19 02:31:29;;;;;;;5.72;3.58;;;;;;;30.38;48.79;99626.28;4898718;29;20020;-73
2023/07/19 02:33:54;;;;;;;6.22;3.97;;;;;;;30.36;48.69;99623.72;4898596;29;20073;-72
2023/07/19 02:36:20;;;;;;;4.63;3.35;;;;;;;30.37;48.62;99616.50;4898954;29;20029;-72
2023/07/19 02:38:45;;;;;;;5.20;3.40;;;;;;;30.37;48.45;99621.91;4898887;29;20012;-72
2023/07/19 02:41:11;;;;;;;5.43;3.55;;;;;;;30.36;48.21;99628.28;4898945;29;20045;-73
2023/07/19 02:43:37;;;;;;;5.65;3.72;;;;;;;30.33;48.44;99631.25;4895657;29;20063;-73
2023/07/19 02:46:02;;;;;;;6.03;3.80;;;;;;;30.33;48.59;99631.25;4898412;29;20084;-73
2023/07/19 02:48:28;;;;;;;6.10;4.18;;;;;;;30.30;48.68;99637.78;4898773;29;20029;-73
2023/07/19 02:50:53;;;;;;;4.07;3.05;;;;;;;30.29;48.64;99633.41;4898649;29;20027;-73
2023/07/19 02:53:19;;;;;;;5.88;3.50;;;;;;;30.28;48.62;99634.41;4898255;29;20477;-73
2023/07/19 02:55:46;;;;;;;6.55;3.28;;;;;;;30.27;48.86;99646.19;4898441;29;20072;-73
2023/07/19 02:58:15;;;;;;;5.20;3.40;;;;;;;30.27;48.62;99646.19;4898391;29;20382;-73
2023/07/19 03:00:43;;;;;;;5.57;3.60;;;;;;;30.26;48.87;99653.41;4893700;29;20017;-72
2023/07/19 03:03:10;;;;;;;6.18;3.63;;;;;;;30.27;48.65;99655.09;4896440;29;20412;-73
2023/07/19 03:05:42;;;;;;;6.13;3.70;;;;;;;30.26;48.73;99653.41;4898476;29;20036;-72
2023/07/19 03:08:08;;;;;;;5.68;3.45;;;;;;;30.26;48.58;99653.41;4898374;29;20052;-73
2023/07/19 03:10:33;;;;;;;5.68;3.47;;;;;;;30.24;48.65;99662.63;4898332;29;20389;-72
2023/07/19 03:12:59;;;;;;;6.35;4.18;;;;;;;30.25;48.35;99654.41;4898156;29;20032;-73
2023/07/19 03:15:24;;;;;;;4.95;3.38;;;;;;;30.22;48.54;99656.56;4896397;29;20437;-73
2023/07/19 03:17:50;;;;;;;4.72;3.35;;;;;;;30.19;48.39;99646.94;4893987;29;20032;-72
2023/07/19 03:20:15;;;;;;;6.05;3.90;;;;;;;30.17;48.64;99651.63;4898209;29;20021;-72
2023/07/19 03:22:41;;;;;;;5.30;3.22;;;;;;;30.16;48.74;99657.97;4898025;29;20404;-73
2023/07/19 03:25:07;;;;;;;5.13;3.20;;;;;;;30.17;48.29;99662.41;4898058;29;20032;-73
2023/07/19 03:27:32;;;;;;;5.35;3.72;;;;;;;30.16;48.64;99673.31;4898188;29;20500;-72
2023/07/19 03:29:58;;;;;;;5.13;3.47;;;;;;;30.13;48.42;99679.81;4897397;29;20134;-72
2023/07/19 03:32:23;;;;;;;6.10;3.75;;;;;;;30.12;48.44;99683.53;4897746;29;20032;-73
2023/07/19 03:34:49;;;;;;;4.88;3.30;;;;;;;30.10;48.25;99685.50;4897482;29;20032;-73
2023/07/19 03:37:14;;;;;;;6.32;3.30;;;;;;;30.09;48.48;99689.19;4897316;29;20168;-72
2023/07/19 03:39:40;;;;;;;5.93;3.88;;;;;;;30.07;48.67;99672.31;4897609;29;20031;-72
2023/07/19 03:42:07;;;;;;;5.00;3.47;;;;;;;30.06;48.47;99667.94;4892422;29;20116;-71
2023/07/19 03:44:32;;;;;;;5.15;3.40;;;;;;;30.04;48.29;99681.53;4893523;29;20481;-73
2023/07/19 03:46:58;;;;;;;5.65;3.40;;;;;;;30.01;48.16;99693.44;4897684;29;20031;-73
2023/07/19 03:49:23;;;;;;;5.75;3.35;;;;;;;30.02;48.45;99684.38;4897396;29;20040;-73
2023/07/19 03:51:48;;;;;;;4.95;3.50;;;;;;;30.01;48.48;99682.69;4897603;29;20137;-73
2023/07/19 03:54:14;;;;;;;5.80;3.63;;;;;;;29.99;48.35;99668.53;4897346;29;20037;-73
2023/07/19 03:56:39;;;;;;;4.35;3.28;;;;;;;29.99;48.25;99673.06;4897347;29;20025;-72
2023/07/19 03:59:04;;;;;;;4.40;3.00;;;;;;;29.95;48.32;99675.19;4897193;29;20020;-72
2023/07/19 04:01:30;;;;;;;4.47;2.92;;;;;;;29.95;47.91;99664.44;4897677;29;20047;-72
2023/07/19 04:03:55;;;;;;;5.78;3.20;;;;;;;29.92;48.20;99664.72;4897239;29;20355;-71
2023/07/19 04:06:21;;;;;;;5.38;3.70;;;;;;;29.90;48.29;99672.09;4897166;29;20044;-72
2023/07/19 04:08:46;;;;;;;5.93;3.60;;;;;;;29.87;48.14;99686.69;4897014;29;20044;-73
2023/07/19 04:11:11;;;;;;;5.68;3.47;;;;;;;29.86;48.44;99686.81;4897241;29;20508;-72
2023/07/19 04:13:37;;;;;;;4.22;2.88;;;;;;;29.86;48.03;99678.75;4896543;29;20029;-72
2023/07/19 04:16:02;;;;;;;5.43;3.53;;;;;;;29.84;48.29;99687.00;4896971;29;20035;-72
2023/07/19 04:18:28;;;;;;;4.57;3.15;;;;;;;29.80;48.24;99674.84;4897070;29;20458;-72
2023/07/19 04:20:58;;;;;;;5.80;3.17;;;;;;;29.82;48.03;99682.75;4896999;29;20064;-72
2023/07/19 04:23:27;;;;;;;5.82;3.38;;;;;;;29.79;48.13;99693.78;4893267;29;20029;-73
2023/07/19 04:25:52;;;;;;;4.43;3.20;;;;;;;29.79;48.63;99683.03;4896699;29;20029;-71
2023/07/19 04:28:19;;;;;;;5.88;3.33;;;;;;;29.79;48.35;99683.91;4896198;29;20477;-73
2023/07/19 04:30:45;;;;;;;5.50;3.42;;;;;;;29.76;48.42;99715.63;4896951;29;20020;-73
2023/07/19 04:33:11;;;;;;;6.25;3.30;;;;;;;29.74;48.50;99713.91;4896582;29;20039;-72
2023/07/19 04:35:36;;;;;;;5.05;3.47;;;;;;;29.73;48.19;99697.94;4896805;29;20052;-73
2023/07/19 04:38:03;;;;;;;5.00;3.30;;;;;;;29.73;48.20;99682.63;4896757;29;20408;-73
2023/07/19 04:40:30;;;;;;;4.70;3.22;;;;;;;29.71;48.50;99681.06;4892862;29;20115;-73
2023/07/19 04:42:55;;;;;;;5.03;3.05;;;;;;;29.68;48.28;99676.84;4894858;29;20032;-73
2023/07/19 04:45:21;;;;;;;5.95;3.15;;;;;;;29.69;48.04;99666.94;4896666;29;20036;-73
2023/07/19 04:47:46;;;;;;;4.78;2.85;;;;;;;29.66;48.29;99675.28;4896659;29;20053;-73
2023/07/19 04:50:12;;;;;;;5.88;3.25;;;;;;;29.65;48.33;99661.00;4896659;29;20044;-72
2023/07/19 04:52:39;;;;;;;5.68;3.28;;;;;;;29.63;48.27;99652.22;4895238;29;20063;-72
2023/07/19 04:55:05;;;;;;;5.35;3.33;;;;;;;29.63;48.18;99656.78;4896627;29;20033;-72
2023/07/19 04:57:31;;;;;;;5.40;3.30;;;;;;;29.65;47.95;99689.72;4896246;29;20037;-73
2023/07/19 04:59:57;;;;;;;5.20;2.90;;;;;;;29.62;48.20;99698.94;4896628;29;20417;-73
2023/07/19 05:02:22;;;;;;;5.55;3.10;;;;;;;29.60;48.19;99714.38;4896686;29;20025;-72
2023/07/19 05:04:48;;;;;;;4.82;3.17;;;;;;;29.58;48.28;99719.88;4896545;29;20028;-73
2023/07/19 05:07:14;;;;;;;5.05;3.22;;;;;;;29.58;48.25;99727.13;4896545;29;20047;-72
2023/07/19 05:09:41;;;;;;;4.95;2.85;;;;;;;29.57;48.33;99738.84;4896316;29;20417;-73
2023/07/19 05:12:09;;;;;;;4.53;3.22;;;;;;;29.56;48.43;99734.47;4892961;29;20037;-73
2023/07/19 05:14:35;;;;;;;4.70;3.17;;;;;;;29.56;48.31;99727.25;4895696;29;20438;-72
2023/07/19 05:17:00;;;;;;;5.10;3.22;;;;;;;29.56;48.21;99734.47;4896458;29;20029;-73
2023/07/19 05:19:26;;;;;;;5.10;3.13;;;;;;;29.56;48.29;99737.16;4896392;29;20024;-73
2023/07/19 05:21:51;;;;;;;5.00;3.25;;;;;;;29.54;48.23;99723.00;4896612;29;20016;-73
2023/07/19 05:24:16;;;;;;;4.97;3.22;;;;;;;29.52;47.87;99725.84;4896109;29;20029;-73
2023/07/19 05:26:42;;;;;;;5.13;3.25;;;;;;;29.52;48.07;99738.41;4894771;29;20031;-72
2023/07/19 05:29:08;;;;;;;5.38;3.20;;;;;;;29.51;48.33;99742.09;4896586;29;20084;-72
2023/07/19 05:31:37;;;;;;;5.65;3.17;;;;;;;29.48;48.17;99727.97;4896304;29;20029;-73
2023/07/19 05:34:03;;;;;;;5.35;3.33;;;;;;;29.48;48.21;99735.16;4895850;29;20037;-72
2023/07/19 05:36:28;;;;;;;5.40;3.05;;;;;;;29.47;47.60;99739.69;4895940;29;20048;-73
2023/07/19 05:38:54;;;;;;;4.85;3.15;;;;;;;29.44;48.12;99745.34;4896881;29;20025;-72
2023/07/19 05:41:20;;;;;;;4.70;3.20;;;;;;;29.44;47.92;99739.97;4899452;29;20028;-72
2023/07/19 05:43:46;;;;;;;5.55;3.20;;;;;;;29.43;47.76;99732.88;4897581;29;20144;-72
2023/07/19 05:46:11;;;;;;;5.85;3.20;;;;;;;29.42;47.94;99741.09;4899839;29;20115;-73
2023/07/19 05:48:37;;;;;;;5.65;3.50;;;;;;;29.40;48.01;99749.31;4899623;29;20061;-73
2023/07/19 05:51:04;;;;;;;4.32;3.03;;;;;;;29.40;47.83;99743.09;4899582;29;20208;-73
2023/07/19 05:53:30;;;;;;;5.55;3.45;;;;;;;29.38;47.79;99740.53;4894264;29;20025;-73
2023/07/19 05:55:56;;;;;;;5.22;3.28;;;;;;;29.38;47.63;99745.06;4899105;29;20519;-73
2023/07/19 05:58:22;;;;;;;5.57;3.38;;;;;;;29.34;48.01;99741.78;4899688;29;20025;-73
2023/07/19 06:00:48;;;;;;;4.70;3.15;;;;;;;29.32;47.87;99747.34;4899592;29;20586;-73
2023/07/19 06:03:16;;;;;;;4.53;2.80;;;;;;;29.32;47.95;99757.22;4899351;29;20375;-71
2023/07/19 06:05:45;;;;;;;5.47;3.30;;;;;;;29.30;47.70;99745.78;4898130;29;20028;-73
2023/07/19 06:08:11;;;;;;;4.68;2.90;;;;;;;29.34;47.75;99765.97;4899198;29;20060;-72
2023/07/19 06:10:37;;;;;;;3.95;2.63;;;;;;;29.31;47.87;99768.97;4898992;29;20029;-73
2023/07/19 06:13:05;;;;;;;5.85;3.50;;;;;;;29.31;47.53;99755.53;4899078;29;20358;-73
2023/07/19 06:15:35;;;;;;;5.55;3.40;;;;;;;29.31;47.50;99760.91;4899287;29;20032;-73
2023/07/19 06:18:01;;;;;;;6.03;3.30;;;;;;;29.32;47.40;99762.59;4899247;29;20056;-72
2023/07/19 06:20:27;;;;;;;5.32;3.53;;;;;;;29.30;47.65;99753.84;4895449;29;20059;-72
2023/07/19 06:22:52;;;;;;;5.40;3.03;;;;;;;29.28;47.72;99771.94;4898910;29;20485;-73
2023/07/19 06:25:18;;;;;;;4.95;3.00;;;;;;;29.27;47.87;99778.28;4898645;29;20043;-73
2023/07/19 06:27:43;;;;;;;5.60;3.38;;;;;;;29.25;47.50;99767.72;4897771;29;20084;-72
2023/07/19 06:30:10;;;;;;;4.85;3.22;;;;;;;29.25;47.56;99766.84;4899108;29;20116;-72
2023/07/19 06:32:36;;;;;;;5.40;3.28;;;;;;;29.26;47.86;99763.16;4897592;29;20405;-72
2023/07/19 06:35:02;;;;;;;4.38;3.00;;;;;;;29.24;47.43;99743.66;4898841;29;20041;-72
2023/07/19 06:37:28;;;;;;;5.20;3.47;;;;;;;29.24;47.42;99749.03;4898868;29;20024;-72
2023/07/19 06:39:53;;;;;;;4.50;3.05;;;;;;;29.21;47.56;99751.00;4898475;29;20071;-72
2023/07/19 06:42:19;;;;;;;4.90;2.97;;;;;;;29.20;47.38;99753.84;4894997;29;20446;-72
2023/07/19 06:44:44;;;;;;;4.30;2.97;;;;;;;29.20;47.54;99754.69;4898669;29;20052;-71
2023/07/19 06:47:13;;;;;;;5.30;3.53;;;;;;;29.20;47.56;99738.56;4897471;29;20473;-73
2023/07/19 06:49:38;;;;;;;5.57;3.55;;;;;;;29.19;47.49;99741.38;4898594;29;20029;-72
2023/07/19 06:52:04;;;;;;;4.80;3.22;;;;;;;29.18;47.37;99731.63;4898862;29;20024;-72
2023/07/19 06:54:30;;;;;;;4.72;3.05;;;;;;;29.16;46.96;99725.56;4898305;29;20461;-72
2023/07/19 06:56:55;;;;;;;5.03;2.97;;;;;;;29.16;47.41;99721.03;4898750;29;20111;-72
2023/07/19 06:59:20;;;;;;;4.72;3.05;;;;;;;29.16;47.30;99715.66;4898762;29;20081;-73
2023/07/19 07:01:46;;;;;;;5.00;3.00;;;;;;;29.16;47.62;99730.94;4896169;29;20032;-72
2023/07/19 07:04:11;;;;;;;4.22;2.75;;;;;;;29.16;47.35;99709.44;4895941;29;20039;-72
2023/07/19 07:06:37;;;;;;;4.90;2.85;;;;;;;29.15;47.33;99703.19;4898576;29;20058;-73
2023/07/19 07:09:03;;;;;;;5.70;3.40;;;;;;;29.15;47.44;99697.81;4897947;29;20416;-73
2023/07/19 07:11:28;;;;;;;5.00;2.95;;;;;;;29.15;47.09;99713.94;4897812;29;20500;-73
2023/07/19 07:13:53;;;;;;;5.93;3.20;;;;;;;29.13;47.37;99758.91;4896580;29;20552;-71
2023/07/19 07:16:19;;;;;;;5.30;3.60;;;;;;;29.14;47.48;99760.63;4898149;29;20112;-73
2023/07/19 07:18:44;;;;;;;4.85;3.08;;;;;;;29.17;47.42;99759.47;4898018;29;20465;-73
2023/07/19 07:21:10;;;;;;;4.82;3.22;;;;;;;29.15;47.26;99799.91;4898329;29;20055;-73
2023/07/19 07:23:35;;;;;;;5.55;3.05;;;;;;;29.15;47.05;99794.53;4897493;29;20513;-72
2023/07/19 07:26:00;;;;;;;4.60;2.90;;;;;;;29.16;46.95;99784.66;4898036;29;20044;-73
2023/07/19 07:28:26;;;;;;;5.50;3.13;;;;;;;29.18;46.97;99798.78;4897884;29;20127;-73
2023/07/19 07:30:52;;;;;;;4.68;3.08;;;;;;;29.18;47.27;99796.09;4897810;29;20035;-72
2023/07/19 07:33:19;;;;;;;5.15;3.15;;;;;;;29.20;46.87;99794.97;4893314;29;20056;-73
2023/07/19 07:35:47;;;;;;;5.63;3.78;;;;;;;29.24;47.07;99782.09;4897812;29;20099;-72
2023/07/19 07:38:12;;;;;;;7.13;3.33;;;;;;;29.27;47.39;99775.59;4896346;29;20438;-72
2023/07/19 07:40:38;;;;;;;5.07;3.08;;;;;;;29.27;47.32;99778.28;4897173;29;20044;-73
2023/07/19 07:43:03;;;;;;;4.97;3.30;;;;;;;29.28;47.12;99777.31;4894134;29;20060;-72
2023/07/19 07:45:29;;;;;;;4.80;3.30;;;;;;;29.31;46.82;99771.66;4897674;29;20036;-72
2023/07/19 07:47:54;;;;;;;5.40;3.15;;;;;;;29.34;46.75;99776.72;4897540;29;20021;-73
2023/07/19 07:50:22;;;;;;;5.13;3.35;;;;;;;29.36;46.75;99772.09;4897274;29;20401;-72
2023/07/19 07:52:48;;;;;;;4.60;3.20;;;;;;;29.35;46.65;99767.72;4897601;29;20099;-72
2023/07/19 07:55:14;;;;;;;4.60;3.05;;;;;;;29.39;46.71;99747.59;4897405;29;20408;-73
2023/07/19 07:57:39;;;;;;;4.55;2.95;;;;;;;29.45;46.95;99741.66;4897344;29;20043;-73
2023/07/19 08:00:11;;;;;;;4.90;3.03;;;;;;;29.47;46.96;99710.13;4897407;29;20029;-73
2023/07/19 08:02:37;;;;;;;5.47;3.40;;;;;;;29.52;46.70;99692.72;4896846;29;20108;-72
2023/07/19 08:05:04;;;;;;;5.72;3.63;;;;;;;29.52;46.72;99681.97;4897118;29;20099;-73
2023/07/19 08:07:30;;;;;;;5.47;3.13;;;;;;;29.54;46.53;99686.22;4897151;29;20030;-72
2023/07/19 08:09:55;;;;;;;5.07;3.30;;;;;;;29.57;46.95;99703.88;4897070;29;20053;-72
2023/07/19 08:12:21;;;;;;;4.32;2.60;;;;;;;29.58;46.47;99713.69;4897121;29;20036;-72
2023/07/19 08:14:46;;;;;;;5.82;3.38;;;;;;;29.58;46.77;99714.50;4896846;29;20028;-72
2023/07/19 08:17:12;;;;;;;4.97;3.00;;;;;;;29.60;46.49;99709.00;4897086;29;20029;-73
2023/07/19 08:19:38;;;;;;;5.40;2.92;;;;;;;29.58;46.64;99693.00;4891015;29;20018;-71
2023/07/19 08:22:05;;;;;;;6.45;3.65;;;;;;;29.59;46.76;99693.84;4897070;29;20032;-73
2023/07/19 08:24:30;;;;;;;4.43;3.03;;;;;;;29.59;46.67;99700.06;4897031;29;20476;-73
2023/07/19 08:26:56;;;;;;;4.28;3.10;;;;;;;29.58;46.73;99689.47;4897004;29;20080;-72
2023/07/19 08:29:21;;;;;;;4.43;3.00;;;;;;;29.58;46.69;99694.84;4896905;29;20678;-72
2023/07/19 08:31:46;;;;;;;5.35;3.40;;;;;;;29.59;46.43;99693.84;4896893;29;20017;-71
2023/07/19 08:34:12;;;;;;;4.53;3.25;;;;;;;29.58;46.68;99700.22;4896313;29;20087;-72
2023/07/19 08:36:37;;;;;;;4.82;3.03;;;;;;;29.60;46.53;99711.69;4896798;29;20024;-72
2023/07/19 08:39:03;;;;;;;4.63;3.55;;;;;;;29.59;46.46;99707.31;4896741;29;20024;-72
2023/07/19 08:41:32;;;;;;;5.47;3.67;;;;;;;29.58;46.58;99711.81;4896758;29;20378;-73
2023/07/19 08:43:57;;;;;;;5.47;3.25;;;;;;;29.58;46.72;99719.06;4892714;29;20359;-72
2023/07/19 08:46:23;;;;;;;4.80;3.15;;;;;;;29.59;46.60;99720.75;4896486;29;20025;-72
2023/07/19 08:48:50;;;;;;;4.40;2.88;;;;;;;29.57;46.63;99720.88;4896093;29;20052;-72
2023/07/19 08:51:16;;;;;;;5.32;3.65;;;;;;;29.60;46.38;99733.19;4896849;29;20048;-73
2023/07/19 08:53:42;;;;;;;5.95;3.22;;;;;;;29.59;46.76;99737.72;4895359;29;20497;-73
2023/07/19 08:56:10;;;;;;;5.50;3.40;;;;;;;29.61;46.64;99722.28;4896804;29;20035;-73
2023/07/19 08:58:39;;;;;;;4.93;3.30;;;;;;;29.61;46.63;99708.00;4896442;29;20024;-72
2023/07/19 09:01:06;;;;;;;4.75;2.88;;;;;;;29.63;46.69;99716.75;4888932;29;20044;-72
2023/07/19 09:03:32;;;;;;;5.30;3.40;;;;;;;29.63;46.64;99727.50;4894788;29;20028;-73
2023/07/19 09:05:58;;;;;;;5.00;3.13;;;;;;;29.64;46.74;99718.47;4896572;29;20469;-73
2023/07/19 09:08:40;;;;;;;7.32;3.58;;;;;;;29.66;46.69;99721.00;4896570;29;20060;-72
2023/07/19 09:11:06;;;;;;;5.20;3.47;;;;;;;29.64;46.40;99702.34;4896849;29;20035;-73
2023/07/19 09:13:33;;;;;;;4.18;3.08;;;;;;;29.65;46.59;99714.78;4897990;29;20499;-72
2023/07/19 09:16:02;;;;;;;5.00;3.28;;;;;;;29.68;46.62;99736.00;4898132;29;20037;-72
2023/07/19 09:18:30;;;;;;;4.93;3.15;;;;;;;29.69;46.67;99742.22;4900283;29;20036;-72
2023/07/19 09:21:01;;;;;;;4.35;2.80;;;;;;;29.70;46.58;99750.16;4900357;29;20527;-72
2023/07/19 09:23:26;;;;;;;5.30;3.35;;;;;;;29.73;46.22;99754.41;4885241;29;20099;-72
2023/07/19 09:25:54;;;;;;;5.10;3.30;;;;;;;29.74;46.38;99759.63;4889608;29;20120;-73
2023/07/19 09:28:21;;;;;;;5.38;3.22;;;;;;;29.77;46.40;99765.72;4884507;29;20399;-72
2023/07/19 09:30:54;;;;;;;6.00;3.50;;;;;;;29.78;46.20;99772.78;4900298;29;20083;-73
2023/07/19 09:33:20;;;;;;;5.75;3.78;;;;;;;29.78;46.52;99778.16;4898300;29;20052;-72
2023/07/19 09:35:45;;;;;;;5.47;3.40;;;;;;;29.78;46.13;99770.09;4894200;29;20463;-73
2023/07/19 09:38:11;;;;;;;4.88;3.03;;;;;;;29.80;46.31;99755.50;4886277;29;20073;-72
2023/07/19 09:40:36;;;;;;;7.00;4.07;;;;;;;29.80;46.24;99771.66;4900134;29;20506;-72
2023/07/19 09:43:03;;;;;;;5.20;3.50;;;;;;;29.80;46.62;99771.66;4888254;29;20037;-70
2023/07/19 09:45:32;;;;;;;4.93;3.17;;;;;;;29.82;46.45;99779.59;4894208;29;20500;-72
2023/07/19 09:47:59;;;;;;;4.38;3.00;;;;;;;29.83;46.42;99781.28;4899727;29;20120;-72
2023/07/19 09:50:27;;;;;;;5.85;3.15;;;;;;;29.82;46.43;99784.97;4899879;29;20016;-72
2023/07/19 09:52:56;;;;;;;4.93;3.60;;;;;;;29.81;46.44;99789.47;4899813;29;20033;-71
2023/07/19 09:55:22;;;;;;;4.70;3.03;;;;;;;29.83;46.48;99783.97;4899531;29;20549;-72
2023/07/19 09:57:49;;;;;;;5.10;3.20;;;;;;;29.82;46.32;99779.59;4893367;29;20033;-72
2023/07/19 10:00:15;;;;;;;5.00;3.33;;;;;;;29.82;46.33;99784.97;4892094;29;20032;-72
2023/07/19 10:02:41;;;;;;;5.53;3.08;;;;;;;29.82;46.41;99779.59;4899339;29;20039;-72
2023/07/19 10:05:07;;;;;;;4.15;3.05;;;;;;;29.81;46.24;99767.97;4899172;29;20029;-73
2023/07/19 10:07:34;;;;;;;4.70;3.35;;;;;;;29.84;46.41;99772.22;4890420;29;20029;-72
2023/07/19 10:10:02;;;;;;;6.50;3.85;;;;;;;29.83;46.16;99765.13;4899642;29;20033;-73
2023/07/19 10:12:28;;;;;;;4.40;3.08;;;;;;;29.82;46.07;99758.06;4899673;29;20032;-73
2023/07/19 10:15:02;;;;;;;4.22;3.13;;;;;;;29.82;46.06;99772.34;4899512;29;20029;-73
2023/07/19 10:17:32;;;;;;;4.32;2.80;;;;;;;29.84;46.08;99761.44;4899291;29;20444;-73
2023/07/19 10:20:12;;;;;;;3.65;2.35;;;;;;;29.83;46.44;99757.91;4899640;29;20028;-72
2023/07/19 10:22:58;;;;;;;5.53;3.20;;;;;;;29.83;45.98;99773.19;4899399;29;20103;-72
2023/07/19 10:25:35;;;;;;;4.73;2.97;;;;;;;29.83;46.38;99743.63;4887055;29;20041;-73
2023/07/19 10:28:04;;;;;;;4.60;2.90;;;;;;;29.85;46.03;99733.56;4899238;29;20024;-72
2023/07/19 10:30:51;;;;;;;4.35;3.05;;;;;;;29.87;46.30;99745.00;4899008;29;20025;-72
2023/07/19 10:33:21;;;;;;;5.40;3.47;;;;;;;29.86;46.54;99737.94;4899316;29;20025;-71
2023/07/19 10:35:49;;;;;;;5.00;3.17;;;;;;;29.87;46.29;99728.88;4895599;29;20028;-72
2023/07/19 10:38:17;;;;;;;4.70;3.28;;;;;;;29.88;46.16;99733.28;4899214;29;20080;-72
2023/07/19 10:40:46;;;;;;;5.03;3.42;;;;;;;29.91;46.52;99724.91;4899057;29;20423;-72
2023/07/19 10:43:12;;;;;;;6.22;3.70;;;;;;;29.90;46.44;99715.13;4894974;29;20389;-72
2023/07/19 10:45:38;;;;;;;5.00;3.50;;;;;;;29.90;46.08;99707.06;4898479;29;20025;-72
2023/07/19 10:48:04;;;;;;;4.80;3.22;;;;;;;29.93;46.19;99714.84;4898904;29;20481;-71
2023/07/19 10:50:29;;;;;;;5.15;3.10;;;;;;;29.93;46.55;99706.78;4891134;29;20112;-72
2023/07/19 10:52:55;;;;;;;5.28;3.30;;;;;;;29.96;46.41;99703.78;4892818;29;20112;-72
2023/07/19 10:55:20;;;;;;;5.38;3.30;;;;;;;29.96;46.65;99703.78;4897721;29;20029;-73
2023/07/19 10:57:47;;;;;;;4.88;3.10;;;;;;;29.98;46.63;99701.78;4888521;29;20111;-72
2023/07/19 11:00:13;;;;;;;4.32;2.75;;;;;;;29.99;46.46;99700.81;4893161;29;20508;-73
2023/07/19 11:02:40;;;;;;;4.85;3.25;;;;;;;29.99;46.35;99706.19;4898882;29;20032;-73
2023/07/19 11:05:09;;;;;;;4.65;3.08;;;;;;;30.01;46.57;99709.56;4898662;29;20032;-72
2023/07/19 11:07:35;;;;;;;5.07;3.20;;;;;;;30.02;46.49;99708.56;4898454;29;20024;-71
2023/07/19 11:10:04;;;;;;;4.60;3.13;;;;;;;30.04;46.43;99702.19;4898218;29;20032;-72
2023/07/19 11:12:32;;;;;;;3.90;2.53;;;;;;;30.02;46.33;99705.88;4898314;29;20030;-73
2023/07/19 11:15:00;;;;;;;5.68;2.83;;;;;;;30.04;46.39;99696.81;4897744;29;20040;-73
2023/07/19 11:17:27;;;;;;;5.18;2.97;;;;;;;30.05;46.53;99693.13;4889603;29;20119;-73
2023/07/19 11:19:53;;;;;;;4.97;3.25;;;;;;;30.05;46.39;99699.38;4898422;29;20140;-72
2023/07/19 11:22:26;;;;;;;4.47;2.90;;;;;;;30.06;46.21;99701.06;4898226;29;20415;-72
2023/07/19 11:24:53;;;;;;;4.35;3.00;;;;;;;30.06;46.48;99705.59;4894349;29;20153;-72
2023/07/19 11:27:19;;;;;;;4.43;3.20;;;;;;;30.06;46.54;99684.91;4897909;29;20025;-73
2023/07/19 11:29:52;;;;;;;4.95;3.30;;;;;;;30.08;46.55;99692.84;4896938;29;20394;-72